This is the latest recevied weather packets stored in our database for station/object 9D9-WX. If no packets are shown the sender has not sent any weather packets the latest 1 day(s).
| Time | Temp. | Humidity | Pressure | Rain* | Wind** | Luminosity | Snow |
|---|---|---|---|---|---|---|---|
| 1777975235 | 10.56° C | 59% | 972.7 hPa | 0 mm | 4.92 m/s, 262° | - | - |
| 1777974311 | 10.56° C | 70% | 972.9 hPa | 0 mm | 4.47 m/s, 265° | - | - |
| 1777973430 | 10.56° C | 75% | 972.7 hPa | 0 mm | 3.58 m/s, 264° | - | - |
| 1777972511 | 11.11° C | 75% | 972.6 hPa | 0 mm | 5.36 m/s, 256° | - | - |
| 1777971636 | 10.56° C | 75% | 972.6 hPa | 0 mm | 3.13 m/s, 246° | - | - |
| 1777970709 | 11.11° C | 76% | 973 hPa | 0 mm | 4.02 m/s, 262° | - | - |
| 1777969827 | 11.67° C | 83% | 972.3 hPa | 0 mm | 4.02 m/s, 262° | - | - |
| 1777968911 | 11.67° C | 83% | 972.3 hPa | 0 mm | 4.47 m/s, 258° | - | - |
| 1777968033 | 12.22° C | 73% | 972.6 hPa | 0 mm | 4.47 m/s, 253° | - | - |
| 1777967111 | 12.22° C | 76% | 971.8 hPa | 0 mm | 4.47 m/s, 246° | - | - |
| 1777966230 | 12.78° C | 76% | 971.8 hPa | 0 mm | 4.02 m/s, 240° | - | - |
| 1777965312 | 12.78° C | 76% | 971.9 hPa | 0 mm | 4.92 m/s, 232° | - | - |
| 1777964433 | 13.33° C | 76% | 971.9 hPa | 0 mm | 4.92 m/s, 230° | - | - |
| 1777963511 | 13.33° C | 77% | 972.4 hPa | 0 mm | 4.47 m/s, 247° | - | - |
| 1777962624 | 13.89° C | 76% | 971.8 hPa | 0 mm | 4.92 m/s, 236° | - | - |
| 1777961712 | 13.89° C | 76% | 971.8 hPa | 0 mm | 4.47 m/s, 236° | - | - |
| 1777960835 | 14.44° C | 76% | 971.8 hPa | 0 mm | 4.02 m/s, 237° | - | - |
| 1777959912 | 14.44° C | 74% | 972.8 hPa | 0 mm | 4.92 m/s, 241° | - | - |
| 1777959030 | 14.44° C | 63% | 971.6 hPa | 0 mm | 5.36 m/s, 228° | - | - |
| 1777958111 | 15.56° C | 63% | 971.7 hPa | 0 mm | 5.36 m/s, 225° | - | - |
* Rain latest hour (hover to see other rain measurements)
** Current wind speed in m/s (hover to see current wind gust speed)